sensor_id;sensor_type;location;lat;lon;timestamp;P1;durP1;ratioP1;P2;durP2;ratioP2
3101;SDS011;1561;42.666;23.392;2024-03-08T00:01:13;10.37;;;6.70;;
3101;SDS011;1561;42.666;23.392;2024-03-08T00:03:53;10.43;;;6.00;;
3101;SDS011;1561;42.666;23.392;2024-03-08T00:06:29;9.97;;;6.10;;
3101;SDS011;1561;42.666;23.392;2024-03-08T00:09:00;8.13;;;5.20;;
3101;SDS011;1561;42.666;23.392;2024-03-08T00:11:37;8.27;;;5.53;;
3101;SDS011;1561;42.666;23.392;2024-03-08T00:14:07;7.83;;;4.70;;
3101;SDS011;1561;42.666;23.392;2024-03-08T00:16:38;10.67;;;5.70;;
3101;SDS011;1561;42.666;23.392;2024-03-08T00:19:08;9.40;;;6.20;;
3101;SDS011;1561;42.666;23.392;2024-03-08T00:21:52;9.77;;;5.80;;
3101;SDS011;1561;42.666;23.392;2024-03-08T00:24:25;9.50;;;5.83;;
3101;SDS011;1561;42.666;23.392;2024-03-08T00:26:56;9.60;;;5.30;;
3101;SDS011;1561;42.666;23.392;2024-03-08T00:29:27;6.37;;;4.80;;
3101;SDS011;1561;42.666;23.392;2024-03-08T00:31:59;9.03;;;5.83;;
3101;SDS011;1561;42.666;23.392;2024-03-08T00:34:53;8.10;;;6.07;;
3101;SDS011;1561;42.666;23.392;2024-03-08T00:37:23;9.70;;;5.93;;
3101;SDS011;1561;42.666;23.392;2024-03-08T00:39:54;7.33;;;5.40;;
3101;SDS011;1561;42.666;23.392;2024-03-08T00:42:35;7.50;;;5.10;;
3101;SDS011;1561;42.666;23.392;2024-03-08T00:45:06;8.90;;;6.10;;
3101;SDS011;1561;42.666;23.392;2024-03-08T00:47:40;8.00;;;6.00;;
3101;SDS011;1561;42.666;23.392;2024-03-08T00:50:13;10.70;;;6.23;;
3101;SDS011;1561;42.666;23.392;2024-03-08T00:52:40;10.47;;;7.00;;
3101;SDS011;1561;42.666;23.392;2024-03-08T00:55:23;8.73;;;5.73;;
3101;SDS011;1561;42.666;23.392;2024-03-08T00:57:56;9.40;;;6.10;;
3101;SDS011;1561;42.666;23.392;2024-03-08T01:00:23;10.20;;;6.67;;
3101;SDS011;1561;42.666;23.392;2024-03-08T01:02:56;8.90;;;5.43;;
3101;SDS011;1561;42.666;23.392;2024-03-08T01:05:28;9.87;;;5.80;;
3101;SDS011;1561;42.666;23.392;2024-03-08T01:07:58;8.43;;;5.57;;
3101;SDS011;1561;42.666;23.392;2024-03-08T01:10:38;6.50;;;4.13;;
3101;SDS011;1561;42.666;23.392;2024-03-08T01:13:09;5.47;;;4.03;;
3101;SDS011;1561;42.666;23.392;2024-03-08T01:15:47;3.33;;;3.00;;
3101;SDS011;1561;42.666;23.392;2024-03-08T01:18:22;3.10;;;2.60;;
3101;SDS011;1561;42.666;23.392;2024-03-08T01:20:52;2.50;;;2.17;;
3101;SDS011;1561;42.666;23.392;2024-03-08T01:23:24;1.73;;;1.60;;
3101;SDS011;1561;42.666;23.392;2024-03-08T01:25:55;2.40;;;2.00;;
3101;SDS011;1561;42.666;23.392;2024-03-08T01:28:23;3.10;;;2.00;;
3101;SDS011;1561;42.666;23.392;2024-03-08T01:30:52;4.03;;;2.50;;
3101;SDS011;1561;42.666;23.392;2024-03-08T01:33:26;3.10;;;2.80;;
3101;SDS011;1561;42.666;23.392;2024-03-08T01:35:54;2.40;;;2.13;;
3101;SDS011;1561;42.666;23.392;2024-03-08T01:38:25;2.67;;;2.03;;
3101;SDS011;1561;42.666;23.392;2024-03-08T01:40:55;3.50;;;2.70;;
3101;SDS011;1561;42.666;23.392;2024-03-08T01:43:25;2.33;;;1.90;;
3101;SDS011;1561;42.666;23.392;2024-03-08T01:45:55;2.43;;;2.20;;
3101;SDS011;1561;42.666;23.392;2024-03-08T01:48:27;2.43;;;2.23;;
3101;SDS011;1561;42.666;23.392;2024-03-08T01:51:10;2.57;;;2.00;;
3101;SDS011;1561;42.666;23.392;2024-03-08T01:53:41;2.60;;;2.30;;
3101;SDS011;1561;42.666;23.392;2024-03-08T01:56:20;3.30;;;2.90;;
3101;SDS011;1561;42.666;23.392;2024-03-08T01:58:57;3.87;;;3.20;;
3101;SDS011;1561;42.666;23.392;2024-03-08T02:01:28;3.57;;;3.23;;
3101;SDS011;1561;42.666;23.392;2024-03-08T02:04:05;3.60;;;2.90;;
3101;SDS011;1561;42.666;23.392;2024-03-08T02:06:33;7.20;;;2.80;;
3101;SDS011;1561;42.666;23.392;2024-03-08T02:09:10;2.57;;;2.10;;
3101;SDS011;1561;42.666;23.392;2024-03-08T02:11:46;3.53;;;2.77;;
3101;SDS011;1561;42.666;23.392;2024-03-08T02:14:15;2.97;;;2.67;;
3101;SDS011;1561;42.666;23.392;2024-03-08T02:16:59;2.70;;;2.50;;
3101;SDS011;1561;42.666;23.392;2024-03-08T02:22:28;2.80;;;2.53;;
3101;SDS011;1561;42.666;23.392;2024-03-08T02:25:00;2.63;;;2.43;;
3101;SDS011;1561;42.666;23.392;2024-03-08T02:27:31;3.67;;;2.80;;
3101;SDS011;1561;42.666;23.392;2024-03-08T02:30:04;3.27;;;2.70;;
3101;SDS011;1561;42.666;23.392;2024-03-08T02:32:36;3.17;;;2.67;;
3101;SDS011;1561;42.666;23.392;2024-03-08T02:35:06;3.23;;;2.93;;
3101;SDS011;1561;42.666;23.392;2024-03-08T02:37:44;3.57;;;2.80;;
3101;SDS011;1561;42.666;23.392;2024-03-08T02:40:13;5.00;;;3.67;;
3101;SDS011;1561;42.666;23.392;2024-03-08T02:42:49;4.33;;;2.87;;
3101;SDS011;1561;42.666;23.392;2024-03-08T02:45:25;3.10;;;2.80;;
3101;SDS011;1561;42.666;23.392;2024-03-08T02:47:55;3.30;;;3.00;;
3101;SDS011;1561;42.666;23.392;2024-03-08T02:50:26;3.20;;;2.90;;
3101;SDS011;1561;42.666;23.392;2024-03-08T02:52:58;3.47;;;2.70;;
3101;SDS011;1561;42.666;23.392;2024-03-08T02:55:29;3.00;;;2.80;;
3101;SDS011;1561;42.666;23.392;2024-03-08T02:58:07;2.53;;;1.97;;
3101;SDS011;1561;42.666;23.392;2024-03-08T03:00:40;3.00;;;2.50;;
3101;SDS011;1561;42.666;23.392;2024-03-08T03:03:12;2.80;;;2.60;;
3101;SDS011;1561;42.666;23.392;2024-03-08T03:05:42;3.07;;;2.77;;
3101;SDS011;1561;42.666;23.392;2024-03-08T03:08:19;3.83;;;2.37;;
3101;SDS011;1561;42.666;23.392;2024-03-08T03:10:52;2.17;;;2.03;;
3101;SDS011;1561;42.666;23.392;2024-03-08T03:13:26;2.37;;;2.17;;
3101;SDS011;1561;42.666;23.392;2024-03-08T03:16:01;1.40;;;1.30;;
3101;SDS011;1561;42.666;23.392;2024-03-08T03:18:35;1.80;;;1.70;;
3101;SDS011;1561;42.666;23.392;2024-03-08T03:21:06;1.73;;;1.60;;
3101;SDS011;1561;42.666;23.392;2024-03-08T03:23:43;1.93;;;1.77;;
3101;SDS011;1561;42.666;23.392;2024-03-08T03:26:14;1.57;;;1.47;;
3101;SDS011;1561;42.666;23.392;2024-03-08T03:28:44;1.43;;;1.33;;
3101;SDS011;1561;42.666;23.392;2024-03-08T03:31:13;1.50;;;1.40;;
3101;SDS011;1561;42.666;23.392;2024-03-08T03:33:40;1.40;;;1.30;;
3101;SDS011;1561;42.666;23.392;2024-03-08T03:36:10;2.17;;;1.87;;
3101;SDS011;1561;42.666;23.392;2024-03-08T03:38:39;1.53;;;1.37;;
3101;SDS011;1561;42.666;23.392;2024-03-08T03:41:35;2.30;;;1.80;;
3101;SDS011;1561;42.666;23.392;2024-03-08T03:44:06;2.10;;;1.40;;
3101;SDS011;1561;42.666;23.392;2024-03-08T03:46:43;1.53;;;1.43;;
3101;SDS011;1561;42.666;23.392;2024-03-08T03:49:17;1.67;;;1.57;;
3101;SDS011;1561;42.666;23.392;2024-03-08T03:51:45;1.43;;;1.30;;
3101;SDS011;1561;42.666;23.392;2024-03-08T03:54:19;1.70;;;1.60;;
3101;SDS011;1561;42.666;23.392;2024-03-08T03:56:53;1.77;;;1.67;;
3101;SDS011;1561;42.666;23.392;2024-03-08T03:59:23;2.00;;;1.80;;
3101;SDS011;1561;42.666;23.392;2024-03-08T04:01:59;1.70;;;1.60;;
3101;SDS011;1561;42.666;23.392;2024-03-08T04:04:30;3.50;;;2.10;;
3101;SDS011;1561;42.666;23.392;2024-03-08T04:06:59;2.37;;;2.00;;
3101;SDS011;1561;42.666;23.392;2024-03-08T04:09:27;2.53;;;2.27;;
3101;SDS011;1561;42.666;23.392;2024-03-08T04:12:10;1.77;;;1.67;;
3101;SDS011;1561;42.666;23.392;2024-03-08T04:14:42;2.27;;;2.07;;
3101;SDS011;1561;42.666;23.392;2024-03-08T04:17:12;2.23;;;2.03;;
3101;SDS011;1561;42.666;23.392;2024-03-08T04:19:50;2.00;;;1.90;;
3101;SDS011;1561;42.666;23.392;2024-03-08T04:22:20;2.10;;;1.90;;
3101;SDS011;1561;42.666;23.392;2024-03-08T04:24:50;2.20;;;1.97;;
3101;SDS011;1561;42.666;23.392;2024-03-08T04:27:36;1.77;;;1.67;;
3101;SDS011;1561;42.666;23.392;2024-03-08T04:30:07;2.63;;;1.50;;
3101;SDS011;1561;42.666;23.392;2024-03-08T04:32:49;2.37;;;2.17;;
3101;SDS011;1561;42.666;23.392;2024-03-08T04:35:19;2.10;;;1.90;;
3101;SDS011;1561;42.666;23.392;2024-03-08T04:37:49;1.90;;;1.70;;
3101;SDS011;1561;42.666;23.392;2024-03-08T04:40:18;1.30;;;1.20;;
3101;SDS011;1561;42.666;23.392;2024-03-08T04:42:54;1.50;;;1.37;;
3101;SDS011;1561;42.666;23.392;2024-03-08T04:45:23;1.77;;;1.67;;
3101;SDS011;1561;42.666;23.392;2024-03-08T04:47:58;1.80;;;1.60;;
3101;SDS011;1561;42.666;23.392;2024-03-08T04:50:31;2.00;;;1.77;;
3101;SDS011;1561;42.666;23.392;2024-03-08T04:56:25;2.47;;;2.27;;
3101;SDS011;1561;42.666;23.392;2024-03-08T04:59:04;2.13;;;1.97;;
3101;SDS011;1561;42.666;23.392;2024-03-08T05:01:34;1.90;;;1.80;;
3101;SDS011;1561;42.666;23.392;2024-03-08T05:04:09;1.70;;;1.60;;
3101;SDS011;1561;42.666;23.392;2024-03-08T05:06:38;1.83;;;1.73;;
3101;SDS011;1561;42.666;23.392;2024-03-08T05:09:10;3.30;;;2.90;;
3101;SDS011;1561;42.666;23.392;2024-03-08T05:11:42;2.30;;;2.10;;
3101;SDS011;1561;42.666;23.392;2024-03-08T05:14:28;4.50;;;3.60;;
3101;SDS011;1561;42.666;23.392;2024-03-08T05:17:02;4.70;;;4.03;;
3101;SDS011;1561;42.666;23.392;2024-03-08T05:19:32;5.53;;;4.00;;
3101;SDS011;1561;42.666;23.392;2024-03-08T05:22:00;5.70;;;3.80;;
3101;SDS011;1561;42.666;23.392;2024-03-08T05:24:29;4.70;;;3.90;;
3101;SDS011;1561;42.666;23.392;2024-03-08T05:27:01;7.70;;;4.80;;
3101;SDS011;1561;42.666;23.392;2024-03-08T05:29:43;7.00;;;5.30;;
3101;SDS011;1561;42.666;23.392;2024-03-08T05:32:22;6.70;;;5.43;;
3101;SDS011;1561;42.666;23.392;2024-03-08T05:34:50;8.20;;;5.70;;
3101;SDS011;1561;42.666;23.392;2024-03-08T05:37:17;10.27;;;6.30;;
3101;SDS011;1561;42.666;23.392;2024-03-08T05:39:45;8.87;;;5.53;;
3101;SDS011;1561;42.666;23.392;2024-03-08T05:42:16;8.53;;;6.23;;
3101;SDS011;1561;42.666;23.392;2024-03-08T05:44:47;13.27;;;6.57;;
3101;SDS011;1561;42.666;23.392;2024-03-08T05:47:17;9.13;;;6.07;;
3101;SDS011;1561;42.666;23.392;2024-03-08T05:49:45;13.77;;;7.30;;
3101;SDS011;1561;42.666;23.392;2024-03-08T05:52:12;9.97;;;6.90;;
3101;SDS011;1561;42.666;23.392;2024-03-08T05:54:41;12.30;;;7.83;;
3101;SDS011;1561;42.666;23.392;2024-03-08T05:57:08;10.20;;;6.77;;
3101;SDS011;1561;42.666;23.392;2024-03-08T05:59:39;10.43;;;6.30;;
3101;SDS011;1561;42.666;23.392;2024-03-08T06:02:08;10.97;;;6.83;;
3101;SDS011;1561;42.666;23.392;2024-03-08T06:04:37;11.43;;;6.83;;
3101;SDS011;1561;42.666;23.392;2024-03-08T06:07:08;9.23;;;5.90;;
3101;SDS011;1561;42.666;23.392;2024-03-08T06:09:37;11.20;;;7.67;;
3101;SDS011;1561;42.666;23.392;2024-03-08T06:12:10;11.83;;;8.00;;
3101;SDS011;1561;42.666;23.392;2024-03-08T06:14:43;11.83;;;8.17;;
3101;SDS011;1561;42.666;23.392;2024-03-08T06:17:12;12.47;;;7.47;;
3101;SDS011;1561;42.666;23.392;2024-03-08T06:19:43;11.93;;;8.20;;
3101;SDS011;1561;42.666;23.392;2024-03-08T06:22:11;11.87;;;8.30;;
3101;SDS011;1561;42.666;23.392;2024-03-08T06:24:39;11.07;;;7.70;;
3101;SDS011;1561;42.666;23.392;2024-03-08T06:27:07;13.33;;;8.77;;
3101;SDS011;1561;42.666;23.392;2024-03-08T06:29:39;13.00;;;8.60;;
3101;SDS011;1561;42.666;23.392;2024-03-08T06:32:08;11.50;;;8.40;;
3101;SDS011;1561;42.666;23.392;2024-03-08T06:35:06;13.73;;;7.97;;
3101;SDS011;1561;42.666;23.392;2024-03-08T06:38:05;12.73;;;8.33;;
3101;SDS011;1561;42.666;23.392;2024-03-08T06:40:56;12.20;;;7.70;;
3101;SDS011;1561;42.666;23.392;2024-03-08T06:43:46;11.50;;;7.50;;
3101;SDS011;1561;42.666;23.392;2024-03-08T06:46:18;10.17;;;7.47;;
3101;SDS011;1561;42.666;23.392;2024-03-08T06:49:06;10.37;;;7.33;;
3101;SDS011;1561;42.666;23.392;2024-03-08T06:54:59;10.77;;;7.40;;
3101;SDS011;1561;42.666;23.392;2024-03-08T06:57:53;7.80;;;6.30;;
3101;SDS011;1561;42.666;23.392;2024-03-08T07:00:26;7.10;;;5.63;;
3101;SDS011;1561;42.666;23.392;2024-03-08T07:02:59;9.87;;;7.40;;
3101;SDS011;1561;42.666;23.392;2024-03-08T07:05:27;8.13;;;4.77;;
3101;SDS011;1561;42.666;23.392;2024-03-08T07:07:58;6.83;;;5.10;;
3101;SDS011;1561;42.666;23.392;2024-03-08T07:10:41;4.70;;;4.13;;
3101;SDS011;1561;42.666;23.392;2024-03-08T07:13:24;5.60;;;4.60;;
3101;SDS011;1561;42.666;23.392;2024-03-08T07:15:56;4.70;;;4.20;;
3101;SDS011;1561;42.666;23.392;2024-03-08T07:18:26;3.90;;;3.50;;
3101;SDS011;1561;42.666;23.392;2024-03-08T07:20:58;5.03;;;4.10;;
3101;SDS011;1561;42.666;23.392;2024-03-08T07:23:27;5.77;;;4.03;;
3101;SDS011;1561;42.666;23.392;2024-03-08T07:26:49;3.47;;;2.93;;
3101;SDS011;1561;42.666;23.392;2024-03-08T07:29:20;3.40;;;3.10;;
3101;SDS011;1561;42.666;23.392;2024-03-08T07:31:48;3.60;;;3.30;;
3101;SDS011;1561;42.666;23.392;2024-03-08T07:34:29;4.10;;;3.40;;
3101;SDS011;1561;42.666;23.392;2024-03-08T07:37:00;4.00;;;3.13;;
3101;SDS011;1561;42.666;23.392;2024-03-08T07:45:32;5.80;;;3.97;;
3101;SDS011;1561;42.666;23.392;2024-03-08T07:48:02;4.50;;;3.80;;
3101;SDS011;1561;42.666;23.392;2024-03-08T07:50:36;6.50;;;5.03;;
3101;SDS011;1561;42.666;23.392;2024-03-08T07:53:16;5.20;;;4.70;;
3101;SDS011;1561;42.666;23.392;2024-03-08T07:55:43;4.87;;;3.80;;
3101;SDS011;1561;42.666;23.392;2024-03-08T07:58:13;4.20;;;3.20;;
3101;SDS011;1561;42.666;23.392;2024-03-08T08:03:26;10.23;;;5.53;;
3101;SDS011;1561;42.666;23.392;2024-03-08T08:05:56;9.90;;;7.20;;
3101;SDS011;1561;42.666;23.392;2024-03-08T08:08:25;8.17;;;6.53;;
3101;SDS011;1561;42.666;23.392;2024-03-08T08:10:58;6.20;;;5.13;;
3101;SDS011;1561;42.666;23.392;2024-03-08T08:13:33;7.67;;;5.87;;
3101;SDS011;1561;42.666;23.392;2024-03-08T08:16:03;6.50;;;5.20;;
3101;SDS011;1561;42.666;23.392;2024-03-08T08:18:32;8.00;;;5.97;;
3101;SDS011;1561;42.666;23.392;2024-03-08T08:21:01;7.03;;;5.70;;
3101;SDS011;1561;42.666;23.392;2024-03-08T08:23:28;8.47;;;5.30;;
3101;SDS011;1561;42.666;23.392;2024-03-08T08:25:56;6.10;;;5.00;;
3101;SDS011;1561;42.666;23.392;2024-03-08T08:28:28;10.43;;;6.90;;
3101;SDS011;1561;42.666;23.392;2024-03-08T08:31:10;9.10;;;6.17;;
3101;SDS011;1561;42.666;23.392;2024-03-08T08:33:38;6.60;;;5.70;;
3101;SDS011;1561;42.666;23.392;2024-03-08T08:36:06;10.00;;;6.00;;
3101;SDS011;1561;42.666;23.392;2024-03-08T08:38:39;6.60;;;5.20;;
3101;SDS011;1561;42.666;23.392;2024-03-08T08:41:09;5.43;;;4.93;;
3101;SDS011;1561;42.666;23.392;2024-03-08T08:43:40;6.73;;;5.57;;
3101;SDS011;1561;42.666;23.392;2024-03-08T08:46:16;9.10;;;6.93;;
3101;SDS011;1561;42.666;23.392;2024-03-08T08:48:47;8.27;;;5.17;;
3101;SDS011;1561;42.666;23.392;2024-03-08T08:51:16;10.63;;;5.03;;
3101;SDS011;1561;42.666;23.392;2024-03-08T08:53:53;10.50;;;6.20;;
3101;SDS011;1561;42.666;23.392;2024-03-08T08:56:21;5.33;;;4.20;;
3101;SDS011;1561;42.666;23.392;2024-03-08T08:58:50;5.97;;;4.53;;
3101;SDS011;1561;42.666;23.392;2024-03-08T09:01:30;8.10;;;4.57;;
3101;SDS011;1561;42.666;23.392;2024-03-08T09:03:58;5.17;;;4.60;;
3101;SDS011;1561;42.666;23.392;2024-03-08T09:06:27;6.47;;;4.93;;
3101;SDS011;1561;42.666;23.392;2024-03-08T09:08:59;4.33;;;3.77;;
3101;SDS011;1561;42.666;23.392;2024-03-08T09:11:32;5.80;;;4.40;;
3101;SDS011;1561;42.666;23.392;2024-03-08T09:14:05;8.23;;;5.37;;
3101;SDS011;1561;42.666;23.392;2024-03-08T09:16:33;4.33;;;3.93;;
3101;SDS011;1561;42.666;23.392;2024-03-08T09:19:06;5.40;;;4.30;;
3101;SDS011;1561;42.666;23.392;2024-03-08T09:21:37;5.30;;;4.60;;
3101;SDS011;1561;42.666;23.392;2024-03-08T09:24:16;4.00;;;3.70;;
3101;SDS011;1561;42.666;23.392;2024-03-08T09:26:48;4.13;;;3.70;;
3101;SDS011;1561;42.666;23.392;2024-03-08T09:29:25;3.97;;;3.60;;
3101;SDS011;1561;42.666;23.392;2024-03-08T09:32:00;5.33;;;4.00;;
3101;SDS011;1561;42.666;23.392;2024-03-08T09:34:44;4.27;;;3.80;;
3101;SDS011;1561;42.666;23.392;2024-03-08T09:37:12;3.97;;;2.60;;
3101;SDS011;1561;42.666;23.392;2024-03-08T09:39:44;3.30;;;3.10;;
3101;SDS011;1561;42.666;23.392;2024-03-08T09:42:11;3.37;;;3.10;;
3101;SDS011;1561;42.666;23.392;2024-03-08T09:44:43;6.03;;;3.30;;
3101;SDS011;1561;42.666;23.392;2024-03-08T09:47:14;4.00;;;3.60;;
3101;SDS011;1561;42.666;23.392;2024-03-08T09:49:44;3.00;;;2.80;;
3101;SDS011;1561;42.666;23.392;2024-03-08T09:52:11;3.23;;;2.90;;
3101;SDS011;1561;42.666;23.392;2024-03-08T09:54:42;2.83;;;2.63;;
3101;SDS011;1561;42.666;23.392;2024-03-08T09:57:13;4.80;;;3.70;;
3101;SDS011;1561;42.666;23.392;2024-03-08T09:59:42;4.43;;;2.70;;
3101;SDS011;1561;42.666;23.392;2024-03-08T10:02:15;3.40;;;3.10;;
3101;SDS011;1561;42.666;23.392;2024-03-08T10:04:44;3.97;;;3.57;;
3101;SDS011;1561;42.666;23.392;2024-03-08T10:07:28;2.43;;;2.23;;
3101;SDS011;1561;42.666;23.392;2024-03-08T10:09:58;5.87;;;3.47;;
3101;SDS011;1561;42.666;23.392;2024-03-08T10:12:28;2.97;;;2.63;;
3101;SDS011;1561;42.666;23.392;2024-03-08T10:14:59;2.83;;;2.63;;
3101;SDS011;1561;42.666;23.392;2024-03-08T10:17:44;3.00;;;2.70;;
3101;SDS011;1561;42.666;23.392;2024-03-08T10:20:17;3.20;;;3.00;;
3101;SDS011;1561;42.666;23.392;2024-03-08T10:22:50;3.33;;;3.03;;
3101;SDS011;1561;42.666;23.392;2024-03-08T10:25:28;2.90;;;2.43;;
3101;SDS011;1561;42.666;23.392;2024-03-08T10:27:57;3.00;;;2.80;;
3101;SDS011;1561;42.666;23.392;2024-03-08T10:30:26;3.03;;;2.83;;
3101;SDS011;1561;42.666;23.392;2024-03-08T10:32:57;3.40;;;3.10;;
3101;SDS011;1561;42.666;23.392;2024-03-08T10:35:30;3.40;;;3.10;;
3101;SDS011;1561;42.666;23.392;2024-03-08T10:37:59;3.70;;;3.40;;
3101;SDS011;1561;42.666;23.392;2024-03-08T10:40:32;2.90;;;2.47;;
3101;SDS011;1561;42.666;23.392;2024-03-08T10:43:14;3.33;;;3.13;;
3101;SDS011;1561;42.666;23.392;2024-03-08T10:45:49;2.73;;;2.63;;
3101;SDS011;1561;42.666;23.392;2024-03-08T10:48:28;2.23;;;2.13;;
3101;SDS011;1561;42.666;23.392;2024-03-08T10:50:59;2.70;;;2.50;;
3101;SDS011;1561;42.666;23.392;2024-03-08T10:53:33;4.03;;;3.50;;
3101;SDS011;1561;42.666;23.392;2024-03-08T10:56:08;3.67;;;3.30;;
3101;SDS011;1561;42.666;23.392;2024-03-08T10:58:39;2.73;;;2.60;;
3101;SDS011;1561;42.666;23.392;2024-03-08T11:01:15;2.90;;;2.70;;
3101;SDS011;1561;42.666;23.392;2024-03-08T11:03:48;2.60;;;2.40;;
3101;SDS011;1561;42.666;23.392;2024-03-08T11:06:22;10.63;;;2.60;;
3101;SDS011;1561;42.666;23.392;2024-03-08T11:09:01;2.33;;;2.13;;
3101;SDS011;1561;42.666;23.392;2024-03-08T11:11:31;5.10;;;2.27;;
3101;SDS011;1561;42.666;23.392;2024-03-08T11:14:42;2.60;;;2.40;;
3101;SDS011;1561;42.666;23.392;2024-03-08T11:17:13;3.20;;;2.37;;
3101;SDS011;1561;42.666;23.392;2024-03-08T11:19:56;2.47;;;2.27;;
3101;SDS011;1561;42.666;23.392;2024-03-08T11:22:27;2.87;;;2.67;;
3101;SDS011;1561;42.666;23.392;2024-03-08T11:25:01;2.40;;;2.20;;
3101;SDS011;1561;42.666;23.392;2024-03-08T11:27:35;2.20;;;2.00;;
3101;SDS011;1561;42.666;23.392;2024-03-08T11:30:03;2.37;;;2.17;;
3101;SDS011;1561;42.666;23.392;2024-03-08T11:32:38;2.80;;;2.60;;
3101;SDS011;1561;42.666;23.392;2024-03-08T11:35:20;3.70;;;3.40;;
3101;SDS011;1561;42.666;23.392;2024-03-08T11:37:49;4.90;;;3.27;;
3101;SDS011;1561;42.666;23.392;2024-03-08T11:40:16;6.50;;;3.17;;
3101;SDS011;1561;42.666;23.392;2024-03-08T11:42:46;3.10;;;2.90;;
3101;SDS011;1561;42.666;23.392;2024-03-08T11:45:14;3.17;;;2.90;;
3101;SDS011;1561;42.666;23.392;2024-03-08T11:47:46;3.23;;;2.53;;
3101;SDS011;1561;42.666;23.392;2024-03-08T11:50:14;2.50;;;2.30;;
3101;SDS011;1561;42.666;23.392;2024-03-08T11:52:50;2.60;;;2.27;;
3101;SDS011;1561;42.666;23.392;2024-03-08T11:55:20;2.33;;;2.20;;
3101;SDS011;1561;42.666;23.392;2024-03-08T11:57:50;2.17;;;2.07;;
3101;SDS011;1561;42.666;23.392;2024-03-08T12:00:18;2.40;;;2.27;;
3101;SDS011;1561;42.666;23.392;2024-03-08T12:03:05;2.50;;;2.40;;
3101;SDS011;1561;42.666;23.392;2024-03-08T12:05:36;2.60;;;2.40;;
3101;SDS011;1561;42.666;23.392;2024-03-08T12:08:06;2.70;;;2.50;;
3101;SDS011;1561;42.666;23.392;2024-03-08T12:10:40;3.97;;;3.50;;
3101;SDS011;1561;42.666;23.392;2024-03-08T12:13:08;3.30;;;3.10;;
3101;SDS011;1561;42.666;23.392;2024-03-08T12:15:39;2.57;;;2.43;;
3101;SDS011;1561;42.666;23.392;2024-03-08T12:18:07;2.57;;;2.47;;
3101;SDS011;1561;42.666;23.392;2024-03-08T12:20:44;3.00;;;2.73;;
3101;SDS011;1561;42.666;23.392;2024-03-08T12:26:09;2.70;;;2.40;;
3101;SDS011;1561;42.666;23.392;2024-03-08T12:28:47;2.60;;;2.40;;
3101;SDS011;1561;42.666;23.392;2024-03-08T12:31:15;2.67;;;2.47;;
3101;SDS011;1561;42.666;23.392;2024-03-08T12:33:49;2.70;;;2.50;;
3101;SDS011;1561;42.666;23.392;2024-03-08T12:36:18;2.80;;;2.60;;
3101;SDS011;1561;42.666;23.392;2024-03-08T12:38:50;2.53;;;2.33;;
3101;SDS011;1561;42.666;23.392;2024-03-08T12:41:22;2.37;;;2.17;;
3101;SDS011;1561;42.666;23.392;2024-03-08T12:43:54;2.40;;;2.30;;
3101;SDS011;1561;42.666;23.392;2024-03-08T12:46:25;2.70;;;2.50;;
3101;SDS011;1561;42.666;23.392;2024-03-08T12:48:56;3.00;;;2.17;;
3101;SDS011;1561;42.666;23.392;2024-03-08T12:51:24;5.60;;;2.43;;
3101;SDS011;1561;42.666;23.392;2024-03-08T12:53:59;2.57;;;2.37;;
3101;SDS011;1561;42.666;23.392;2024-03-08T12:56:33;2.33;;;2.20;;
3101;SDS011;1561;42.666;23.392;2024-03-08T12:59:19;1.90;;;1.80;;
3101;SDS011;1561;42.666;23.392;2024-03-08T13:01:51;2.13;;;2.03;;
3101;SDS011;1561;42.666;23.392;2024-03-08T13:04:19;2.20;;;1.80;;
3101;SDS011;1561;42.666;23.392;2024-03-08T13:06:47;2.30;;;2.20;;
3101;SDS011;1561;42.666;23.392;2024-03-08T13:09:21;2.37;;;2.20;;
3101;SDS011;1561;42.666;23.392;2024-03-08T13:11:48;2.50;;;2.40;;
3101;SDS011;1561;42.666;23.392;2024-03-08T13:14:15;5.37;;;1.93;;
3101;SDS011;1561;42.666;23.392;2024-03-08T13:16:43;4.60;;;3.00;;
3101;SDS011;1561;42.666;23.392;2024-03-08T13:19:13;6.93;;;4.90;;
3101;SDS011;1561;42.666;23.392;2024-03-08T13:21:41;4.30;;;3.20;;
3101;SDS011;1561;42.666;23.392;2024-03-08T13:24:09;9.57;;;6.73;;
3101;SDS011;1561;42.666;23.392;2024-03-08T13:26:50;4.67;;;4.07;;
3101;SDS011;1561;42.666;23.392;2024-03-08T13:29:18;4.40;;;3.77;;
3101;SDS011;1561;42.666;23.392;2024-03-08T13:31:48;5.90;;;4.23;;
3101;SDS011;1561;42.666;23.392;2024-03-08T13:34:22;3.80;;;3.00;;
3101;SDS011;1561;42.666;23.392;2024-03-08T13:36:54;2.40;;;2.20;;
3101;SDS011;1561;42.666;23.392;2024-03-08T13:39:25;2.30;;;2.10;;
3101;SDS011;1561;42.666;23.392;2024-03-08T13:42:09;2.07;;;1.97;;
3101;SDS011;1561;42.666;23.392;2024-03-08T13:44:44;2.30;;;1.93;;
3101;SDS011;1561;42.666;23.392;2024-03-08T13:47:12;2.20;;;2.10;;
3101;SDS011;1561;42.666;23.392;2024-03-08T13:49:43;6.20;;;2.63;;
3101;SDS011;1561;42.666;23.392;2024-03-08T13:52:19;1.60;;;1.50;;
3101;SDS011;1561;42.666;23.392;2024-03-08T13:54:50;2.40;;;2.07;;
3101;SDS011;1561;42.666;23.392;2024-03-08T13:57:23;4.80;;;2.30;;
3101;SDS011;1561;42.666;23.392;2024-03-08T13:59:53;3.20;;;2.33;;
3101;SDS011;1561;42.666;23.392;2024-03-08T14:02:20;3.90;;;2.60;;
3101;SDS011;1561;42.666;23.392;2024-03-08T14:04:56;2.90;;;2.70;;
3101;SDS011;1561;42.666;23.392;2024-03-08T14:07:28;1.57;;;1.47;;
3101;SDS011;1561;42.666;23.392;2024-03-08T14:10:03;2.90;;;2.70;;
3101;SDS011;1561;42.666;23.392;2024-03-08T14:12:39;2.90;;;2.70;;
3101;SDS011;1561;42.666;23.392;2024-03-08T14:15:12;3.10;;;2.80;;
3101;SDS011;1561;42.666;23.392;2024-03-08T14:17:41;7.33;;;2.73;;
3101;SDS011;1561;42.666;23.392;2024-03-08T14:20:11;2.93;;;2.63;;
3101;SDS011;1561;42.666;23.392;2024-03-08T14:22:40;2.33;;;2.13;;
3101;SDS011;1561;42.666;23.392;2024-03-08T14:25:14;2.83;;;2.63;;
3101;SDS011;1561;42.666;23.392;2024-03-08T14:27:50;3.47;;;2.90;;
3101;SDS011;1561;42.666;23.392;2024-03-08T14:30:23;2.90;;;2.70;;
3101;SDS011;1561;42.666;23.392;2024-03-08T14:33:05;3.70;;;2.70;;
3101;SDS011;1561;42.666;23.392;2024-03-08T14:35:38;3.57;;;3.27;;
3101;SDS011;1561;42.666;23.392;2024-03-08T14:38:10;2.73;;;2.53;;
3101;SDS011;1561;42.666;23.392;2024-03-08T14:40:42;3.80;;;3.47;;
3101;SDS011;1561;42.666;23.392;2024-03-08T14:43:13;3.40;;;2.70;;
3101;SDS011;1561;42.666;23.392;2024-03-08T14:45:45;5.47;;;3.00;;
3101;SDS011;1561;42.666;23.392;2024-03-08T14:48:15;2.50;;;2.30;;
3101;SDS011;1561;42.666;23.392;2024-03-08T14:50:50;2.57;;;2.37;;
3101;SDS011;1561;42.666;23.392;2024-03-08T14:53:23;5.20;;;2.87;;
3101;SDS011;1561;42.666;23.392;2024-03-08T14:55:55;2.57;;;2.37;;
3101;SDS011;1561;42.666;23.392;2024-03-08T14:58:25;2.93;;;2.63;;
3101;SDS011;1561;42.666;23.392;2024-03-08T15:00:54;4.50;;;3.10;;
3101;SDS011;1561;42.666;23.392;2024-03-08T15:03:25;5.87;;;3.20;;
3101;SDS011;1561;42.666;23.392;2024-03-08T15:05:59;2.80;;;2.60;;
3101;SDS011;1561;42.666;23.392;2024-03-08T15:08:26;4.10;;;3.20;;
3101;SDS011;1561;42.666;23.392;2024-03-08T15:10:54;3.03;;;2.80;;
3101;SDS011;1561;42.666;23.392;2024-03-08T15:13:29;3.40;;;2.43;;
3101;SDS011;1561;42.666;23.392;2024-03-08T15:16:05;4.10;;;3.47;;
3101;SDS011;1561;42.666;23.392;2024-03-08T15:18:44;3.53;;;3.20;;
3101;SDS011;1561;42.666;23.392;2024-03-08T15:21:14;4.00;;;3.50;;
3101;SDS011;1561;42.666;23.392;2024-03-08T15:23:54;4.07;;;3.50;;
3101;SDS011;1561;42.666;23.392;2024-03-08T15:26:22;4.30;;;3.90;;
3101;SDS011;1561;42.666;23.392;2024-03-08T15:28:54;4.50;;;4.10;;
3101;SDS011;1561;42.666;23.392;2024-03-08T15:31:22;5.20;;;3.77;;
3101;SDS011;1561;42.666;23.392;2024-03-08T15:33:50;4.30;;;3.83;;
3101;SDS011;1561;42.666;23.392;2024-03-08T15:36:25;6.13;;;3.87;;
3101;SDS011;1561;42.666;23.392;2024-03-08T15:38:55;5.07;;;4.00;;
3101;SDS011;1561;42.666;23.392;2024-03-08T15:41:23;4.90;;;3.90;;
3101;SDS011;1561;42.666;23.392;2024-03-08T15:43:52;8.40;;;5.40;;
3101;SDS011;1561;42.666;23.392;2024-03-08T15:46:24;5.40;;;4.17;;
3101;SDS011;1561;42.666;23.392;2024-03-08T15:48:53;6.93;;;4.53;;
3101;SDS011;1561;42.666;23.392;2024-03-08T15:51:22;14.73;;;8.00;;
3101;SDS011;1561;42.666;23.392;2024-03-08T15:53:49;8.07;;;5.43;;
3101;SDS011;1561;42.666;23.392;2024-03-08T15:56:20;13.93;;;4.67;;